createdAt,value
2022-08-16T00:00:38.566Z,17.34
2022-08-16T00:03:13.501Z,17.35
2022-08-16T00:05:48.560Z,17.37
2022-08-16T00:08:35.804Z,17.38
2022-08-16T00:11:08.076Z,17.36
2022-08-16T00:13:53.432Z,17.32
2022-08-16T00:17:06.638Z,17.28
2022-08-16T00:19:22.546Z,17.21
2022-08-16T00:21:55.232Z,17.18
2022-08-16T00:24:32.457Z,17.17
2022-08-16T00:27:04.288Z,17.11
2022-08-16T00:29:35.125Z,17.07
2022-08-16T00:32:07.586Z,17.03
2022-08-16T00:34:44.139Z,16.97
2022-08-16T00:37:24.555Z,16.93
2022-08-16T00:39:57.391Z,16.91
2022-08-16T00:42:31.714Z,16.90
2022-08-16T00:45:13.349Z,16.87
2022-08-16T00:47:49.141Z,16.84
2022-08-16T00:50:35.988Z,16.82
2022-08-16T00:53:09.416Z,16.82
2022-08-16T00:55:46.568Z,16.83
2022-08-16T00:58:32.276Z,16.84
2022-08-16T01:01:10.379Z,16.83
2022-08-16T01:03:45.459Z,16.82
2022-08-16T01:06:40.497Z,16.81
2022-08-16T01:09:15.362Z,16.78
2022-08-16T01:11:54.001Z,16.77
2022-08-16T01:14:30.079Z,16.77
2022-08-16T01:17:04.482Z,16.73
2022-08-16T01:19:44.564Z,16.71
2022-08-16T01:22:47.684Z,16.69
2022-08-16T01:25:21.618Z,16.66
2022-08-16T01:27:56.268Z,16.65
2022-08-16T01:30:30.707Z,16.63
2022-08-16T01:33:15.581Z,16.61
2022-08-16T01:35:54.066Z,16.59
2022-08-16T01:38:34.510Z,16.57
2022-08-16T01:41:10.158Z,16.54
2022-08-16T01:43:45.310Z,16.53
2022-08-16T01:46:39.388Z,16.50
2022-08-16T01:49:22.515Z,16.49
2022-08-16T01:51:58.744Z,16.44
2022-08-16T01:54:39.856Z,16.39
2022-08-16T01:57:11.645Z,16.33
2022-08-16T01:59:45.600Z,16.29
2022-08-16T02:02:28.398Z,16.26
2022-08-16T02:05:02.644Z,16.24
2022-08-16T02:07:35.892Z,16.22
2022-08-16T02:10:10.203Z,16.19
2022-08-16T02:12:51.297Z,16.15
2022-08-16T02:15:29.179Z,16.12
2022-08-16T02:18:05.490Z,16.09
2022-08-16T02:20:42.553Z,16.07
2022-08-16T02:23:19.431Z,16.03
2022-08-16T02:25:53.518Z,16.00
2022-08-16T02:28:28.591Z,15.94
2022-08-16T02:31:05.265Z,15.88
2022-08-16T02:33:44.111Z,15.84
2022-08-16T02:36:47.367Z,15.79
2022-08-16T02:39:15.478Z,15.77
2022-08-16T02:41:53.388Z,15.73
2022-08-16T02:44:26.839Z,15.70
2022-08-16T02:47:02.496Z,15.64
2022-08-16T02:50:01.447Z,15.60
2022-08-16T02:52:29.427Z,15.56
2022-08-16T02:55:09.511Z,15.54
2022-08-16T02:57:42.543Z,15.51
2022-08-16T03:00:34.615Z,15.49
2022-08-16T03:03:10.629Z,15.46
2022-08-16T03:05:43.161Z,15.43
2022-08-16T03:08:50.967Z,15.39
2022-08-16T03:11:16.609Z,15.35
2022-08-16T03:13:56.864Z,15.33
2022-08-16T03:16:36.513Z,15.30
2022-08-16T03:19:17.563Z,15.27
2022-08-16T03:21:51.826Z,15.23
2022-08-16T03:24:28.690Z,15.20
2022-08-16T03:27:06.887Z,15.17
2022-08-16T03:29:54.537Z,15.15
2022-08-16T03:32:28.353Z,15.12
2022-08-16T03:35:01.599Z,15.09
2022-08-16T03:38:01.815Z,15.05
2022-08-16T03:40:37.747Z,15.01
2022-08-16T03:43:20.688Z,15.00
2022-08-16T03:45:59.688Z,14.99
2022-08-16T03:48:41.690Z,14.96
2022-08-16T03:51:25.432Z,14.93
2022-08-16T03:54:01.353Z,14.90
2022-08-16T03:56:37.501Z,14.88
2022-08-16T04:06:49.462Z,14.83
2022-08-16T04:09:22.870Z,14.79
2022-08-16T04:11:54.344Z,14.76
2022-08-16T04:14:33.229Z,14.75
2022-08-16T04:17:05.563Z,14.75
2022-08-16T04:19:45.411Z,14.74
2022-08-16T04:22:17.568Z,14.72
2022-08-16T04:24:55.067Z,14.71
2022-08-16T04:27:28.940Z,14.71
2022-08-16T04:30:03.764Z,14.75
2022-08-16T04:32:38.827Z,14.80
2022-08-16T04:35:16.481Z,14.83
2022-08-16T04:37:48.386Z,14.87
2022-08-16T04:40:28.404Z,14.91
2022-08-16T04:43:01.693Z,14.99
2022-08-16T04:45:36.084Z,15.08
2022-08-16T04:48:22.003Z,15.21
2022-08-16T04:51:02.073Z,15.38
2022-08-16T04:53:47.675Z,15.72
2022-08-16T04:56:19.238Z,16.17
2022-08-16T04:58:49.771Z,16.63
2022-08-16T05:01:21.621Z,17.09
2022-08-16T05:04:00.378Z,17.56
2022-08-16T05:06:42.255Z,18.05
2022-08-16T05:09:23.377Z,18.60
2022-08-16T05:11:57.418Z,19.15
2022-08-16T05:14:46.148Z,19.64
2022-08-16T05:17:24.726Z,20.12
2022-08-16T05:19:57.595Z,20.56
2022-08-16T05:22:30.469Z,20.94
2022-08-16T05:25:08.872Z,21.29
2022-08-16T05:27:43.100Z,21.65
2022-08-16T05:30:34.485Z,21.85
2022-08-16T05:33:16.159Z,21.97
2022-08-16T05:35:55.634Z,22.15
2022-08-16T05:38:48.353Z,22.32
2022-08-16T05:41:19.521Z,22.48
2022-08-16T05:43:50.060Z,22.68
2022-08-16T05:46:31.023Z,22.90
2022-08-16T05:49:11.702Z,23.18
2022-08-16T05:51:45.949Z,23.46
2022-08-16T05:54:20.250Z,23.72
2022-08-16T05:56:56.818Z,23.98
2022-08-16T05:59:27.959Z,24.07
2022-08-16T06:01:59.785Z,23.98
2022-08-16T06:04:37.309Z,23.98
2022-08-16T06:07:24.827Z,24.19
2022-08-16T06:10:11.859Z,24.48
2022-08-16T06:12:42.732Z,24.82
2022-08-16T06:15:16.598Z,24.93
2022-08-16T06:17:48.280Z,25.19
2022-08-16T06:20:35.535Z,25.44
2022-08-16T06:23:20.687Z,25.66
2022-08-16T06:26:11.752Z,25.59
2022-08-16T06:28:47.183Z,25.69
2022-08-16T06:31:24.704Z,26.01
2022-08-16T06:33:55.927Z,26.12
2022-08-16T06:36:27.194Z,26.18
2022-08-16T06:39:05.051Z,26.42
2022-08-16T06:41:49.272Z,26.50
2022-08-16T06:44:35.201Z,26.25
2022-08-16T06:47:05.913Z,26.09
2022-08-16T06:49:36.302Z,26.12
2022-08-16T06:52:14.032Z,26.35
2022-08-16T06:54:59.340Z,26.67
2022-08-16T06:57:29.833Z,26.77
2022-08-16T07:00:00.319Z,26.65
2022-08-16T07:02:51.335Z,26.49
2022-08-16T07:05:27.021Z,26.46
2022-08-16T07:08:17.413Z,26.69
2022-08-16T07:10:49.806Z,26.92
2022-08-16T07:13:43.652Z,26.81
2022-08-16T07:16:20.463Z,26.86
2022-08-16T07:19:01.314Z,26.79
2022-08-16T07:21:46.660Z,26.73
2022-08-16T07:24:31.398Z,26.78
2022-08-16T07:27:12.565Z,26.80
2022-08-16T07:29:44.241Z,26.83
2022-08-16T07:32:19.439Z,26.74
2022-08-16T07:35:01.403Z,26.57
2022-08-16T07:37:33.147Z,26.43
2022-08-16T07:40:20.902Z,26.63
2022-08-16T07:43:05.236Z,26.87
2022-08-16T07:45:36.661Z,27.18
2022-08-16T07:48:11.844Z,27.27
2022-08-16T07:50:57.263Z,27.21
2022-08-16T07:53:31.273Z,27.31
2022-08-16T07:56:04.421Z,27.41
2022-08-16T07:58:40.549Z,27.41
2022-08-16T08:01:16.490Z,27.22
2022-08-16T08:03:53.892Z,27.20
2022-08-16T08:06:30.227Z,27.28
2022-08-16T08:09:06.649Z,27.44
2022-08-16T08:11:37.647Z,27.72
2022-08-16T08:14:10.715Z,27.90
2022-08-16T08:17:01.863Z,27.93
2022-08-16T08:19:34.687Z,28.07
2022-08-16T08:22:06.728Z,28.02
2022-08-16T08:24:43.992Z,28.01
2022-08-16T08:27:22.959Z,28.08
2022-08-16T08:30:49.839Z,28.23
2022-08-16T08:32:59.867Z,27.97
2022-08-16T08:35:34.503Z,27.80
2022-08-16T08:38:04.028Z,27.98
2022-08-16T08:40:37.414Z,28.12
2022-08-16T08:43:18.231Z,28.24
2022-08-16T08:45:54.430Z,28.27
2022-08-16T08:48:34.189Z,28.33
2022-08-16T08:51:18.825Z,28.41
2022-08-16T08:53:58.033Z,28.54
2022-08-16T08:56:35.273Z,28.67
2022-08-16T08:59:29.314Z,28.74
2022-08-16T09:02:00.965Z,28.79
2022-08-16T09:04:41.763Z,29.00
2022-08-16T09:07:19.730Z,29.22
2022-08-16T09:10:06.279Z,29.35
2022-08-16T09:12:41.186Z,29.33
2022-08-16T09:15:24.828Z,29.54
2022-08-16T09:18:01.103Z,29.90
2022-08-16T09:20:59.294Z,30.02
2022-08-16T09:23:36.471Z,30.03
2022-08-16T09:26:43.991Z,30.09
2022-08-16T09:29:14.555Z,30.21
2022-08-16T09:31:53.620Z,30.28
2022-08-16T09:34:24.527Z,30.44
2022-08-16T09:36:58.104Z,30.37
2022-08-16T09:39:41.482Z,30.27
2022-08-16T09:42:11.338Z,30.35
2022-08-16T09:45:11.952Z,30.25
2022-08-16T09:47:57.039Z,30.12
2022-08-16T09:50:36.927Z,29.95
2022-08-16T09:53:16.829Z,29.86
2022-08-16T09:55:50.064Z,29.92
2022-08-16T09:58:41.600Z,30.17
2022-08-16T10:01:14.680Z,30.35
2022-08-16T10:04:02.084Z,30.35
2022-08-16T10:06:34.416Z,30.23
2022-08-16T10:09:08.348Z,30.35
2022-08-16T10:12:11.836Z,30.16
2022-08-16T10:14:51.955Z,30.11
2022-08-16T10:17:25.158Z,30.38
2022-08-16T10:19:56.247Z,30.51
2022-08-16T10:22:27.050Z,30.52
2022-08-16T10:24:59.984Z,30.65
2022-08-16T10:27:47.378Z,30.85
2022-08-16T10:30:26.085Z,30.98
2022-08-16T10:32:59.397Z,31.24
2022-08-16T10:35:32.830Z,31.42
2022-08-16T10:38:06.733Z,31.54
2022-08-16T10:40:40.997Z,31.68
2022-08-16T10:43:18.521Z,31.83
2022-08-16T10:46:00.511Z,31.96
2022-08-16T10:48:32.058Z,32.03
2022-08-16T10:51:03.167Z,32.24
2022-08-16T10:53:37.726Z,32.25
2022-08-16T10:56:52.141Z,32.46
2022-08-16T11:07:55.197Z,32.81
2022-08-16T11:16:26.850Z,33.47
2022-08-16T11:19:05.591Z,33.65
2022-08-16T11:24:42.736Z,34.44
2022-08-16T11:27:19.873Z,34.79
2022-08-16T11:29:54.892Z,34.84
2022-08-16T11:32:32.117Z,34.82
2022-08-16T11:35:10.762Z,34.76
2022-08-16T11:40:46.882Z,34.91
2022-08-16T11:43:26.533Z,35.23
2022-08-16T11:46:01.347Z,35.43
2022-08-16T11:48:51.888Z,35.55
2022-08-16T11:51:25.096Z,35.77
2022-08-16T11:53:56.342Z,36.06
2022-08-16T11:56:51.769Z,36.00
2022-08-16T11:59:24.212Z,35.83
2022-08-16T12:02:30.566Z,35.79
2022-08-16T12:04:54.314Z,35.53
2022-08-16T12:07:28.447Z,34.38
2022-08-16T12:10:01.289Z,33.31
2022-08-16T12:12:40.355Z,33.08
2022-08-16T12:15:16.197Z,33.45
2022-08-16T12:17:51.420Z,34.11
2022-08-16T12:20:27.993Z,34.82
2022-08-16T12:23:02.925Z,35.37
2022-08-16T12:25:38.599Z,35.76
2022-08-16T12:28:15.202Z,35.99
2022-08-16T12:30:58.829Z,36.61
2022-08-16T12:33:33.098Z,37.12
2022-08-16T12:36:17.846Z,37.61
2022-08-16T12:38:49.974Z,37.68
2022-08-16T12:41:27.786Z,37.54
2022-08-16T12:44:03.470Z,37.79
2022-08-16T12:46:37.478Z,38.08
2022-08-16T12:49:12.503Z,38.33
2022-08-16T12:51:59.764Z,38.44
2022-08-16T12:54:33.981Z,38.38
2022-08-16T12:57:13.992Z,38.36
2022-08-16T13:06:52.381Z,38.83
2022-08-16T13:09:26.199Z,39.16
2022-08-16T13:12:05.686Z,39.31
2022-08-16T13:14:40.014Z,39.59
2022-08-16T13:17:18.947Z,39.86
2022-08-16T13:20:09.485Z,40.07
2022-08-16T13:22:44.739Z,40.54
2022-08-16T13:25:21.400Z,40.92
2022-08-16T13:28:02.280Z,41.03
2022-08-16T13:30:41.203Z,41.17
2022-08-16T13:33:16.973Z,41.07
2022-08-16T13:35:55.413Z,40.98
2022-08-16T13:38:31.532Z,40.96
2022-08-16T13:41:09.158Z,40.81
2022-08-16T13:43:42.181Z,40.99
2022-08-16T13:46:12.955Z,41.24
2022-08-16T13:48:43.996Z,41.43
2022-08-16T13:51:19.013Z,41.61
2022-08-16T13:53:59.049Z,41.85
2022-08-16T13:56:37.692Z,41.91
2022-08-16T13:59:19.357Z,41.96
2022-08-16T14:01:55.258Z,42.00
2022-08-16T14:04:28.013Z,42.23
2022-08-16T14:07:00.089Z,42.34
2022-08-16T14:09:32.208Z,42.44
2022-08-16T14:12:09.819Z,42.57
2022-08-16T14:14:48.551Z,42.63
2022-08-16T14:17:23.121Z,42.61
2022-08-16T14:19:54.340Z,42.47
2022-08-16T14:22:35.588Z,42.37
2022-08-16T14:25:18.978Z,42.33
2022-08-16T14:27:54.290Z,42.30
2022-08-16T14:30:26.115Z,42.44
2022-08-16T14:32:58.036Z,42.74
2022-08-16T14:35:48.591Z,42.74
2022-08-16T14:38:23.966Z,42.96
2022-08-16T14:40:55.742Z,43.21
2022-08-16T14:43:29.778Z,43.30
2022-08-16T14:46:01.969Z,43.22
2022-08-16T14:48:38.093Z,43.53
2022-08-16T14:51:09.647Z,43.73
2022-08-16T14:53:45.339Z,43.75
2022-08-16T14:56:38.097Z,43.84
2022-08-16T14:59:07.105Z,44.06
2022-08-16T15:01:57.989Z,44.07
2022-08-16T15:04:47.675Z,42.35
2022-08-16T15:07:21.623Z,40.14
2022-08-16T15:10:00.604Z,38.38
2022-08-16T15:12:36.058Z,36.62
2022-08-16T15:15:16.453Z,35.21
2022-08-16T15:17:56.787Z,34.00
2022-08-16T15:20:30.378Z,33.06
2022-08-16T15:23:02.640Z,32.37
2022-08-16T15:25:35.996Z,31.64
2022-08-16T15:28:30.731Z,30.98
2022-08-16T15:31:04.589Z,30.40
2022-08-16T15:33:43.600Z,30.05
2022-08-16T15:36:18.192Z,29.69
2022-08-16T15:39:02.534Z,29.31
2022-08-16T15:42:05.432Z,28.91
2022-08-16T15:44:51.938Z,28.61
2022-08-16T15:47:27.170Z,28.42
2022-08-16T15:49:58.413Z,28.27
2022-08-16T15:52:31.088Z,28.24
2022-08-16T15:55:13.321Z,28.32
2022-08-16T15:57:55.221Z,28.24
2022-08-16T16:00:26.725Z,28.31
2022-08-16T16:03:08.646Z,28.30
2022-08-16T16:05:40.288Z,28.71
2022-08-16T16:08:13.496Z,29.43
2022-08-16T16:10:54.588Z,29.88
2022-08-16T16:13:25.431Z,30.13
2022-08-16T16:15:58.971Z,30.31
2022-08-16T16:18:29.977Z,30.46
2022-08-16T16:21:02.998Z,30.51
2022-08-16T16:23:35.573Z,30.56
2022-08-16T16:26:12.584Z,30.64
2022-08-16T16:29:05.169Z,30.72
2022-08-16T16:31:36.197Z,30.66
2022-08-16T16:34:07.578Z,30.71
2022-08-16T16:36:48.302Z,30.71
2022-08-16T16:39:19.288Z,30.67
2022-08-16T16:41:49.932Z,30.64
2022-08-16T16:44:31.775Z,30.63
2022-08-16T16:47:04.498Z,30.55
2022-08-16T16:49:35.412Z,30.38
2022-08-16T16:52:43.358Z,30.14
2022-08-16T16:55:08.531Z,29.85
2022-08-16T16:57:56.803Z,29.57
2022-08-16T17:00:37.488Z,29.26
2022-08-16T17:03:17.028Z,28.95
2022-08-16T17:05:54.244Z,28.66
2022-08-16T17:08:30.905Z,28.38
2022-08-16T17:11:01.712Z,28.15
2022-08-16T17:13:32.777Z,27.91
2022-08-16T17:16:03.483Z,27.68
2022-08-16T17:19:15.098Z,27.45
2022-08-16T17:21:25.046Z,27.20
2022-08-16T17:23:58.109Z,26.98
2022-08-16T17:26:31.779Z,26.78
2022-08-16T17:29:11.285Z,26.59
2022-08-16T17:31:43.503Z,26.37
2022-08-16T17:34:28.595Z,26.18
2022-08-16T17:37:04.957Z,25.98
2022-08-16T17:39:58.183Z,25.80
2022-08-16T17:42:27.755Z,25.60
2022-08-16T17:44:58.250Z,25.44
2022-08-16T17:47:28.807Z,25.30
2022-08-16T17:49:59.240Z,25.16
2022-08-16T17:52:30.056Z,25.04
2022-08-16T17:55:04.282Z,24.92
2022-08-16T17:57:35.093Z,24.80
2022-08-16T18:00:09.275Z,24.70
2022-08-16T18:02:44.759Z,24.59
2022-08-16T18:05:16.221Z,24.48
2022-08-16T18:07:47.357Z,24.37
2022-08-16T18:10:33.428Z,24.27
2022-08-16T18:13:07.804Z,24.17
2022-08-16T18:15:40.087Z,24.08
2022-08-16T18:18:10.809Z,23.99
2022-08-16T18:20:58.628Z,23.90
2022-08-16T18:23:29.300Z,23.81
2022-08-16T18:26:01.607Z,23.71
2022-08-16T18:28:30.769Z,23.63
2022-08-16T18:31:05.312Z,23.52
2022-08-16T18:33:43.756Z,23.43
2022-08-16T18:36:19.886Z,23.32
2022-08-16T18:38:52.656Z,23.25
2022-08-16T18:41:24.509Z,23.16
2022-08-16T18:44:26.272Z,23.08
2022-08-16T18:46:48.850Z,22.99
2022-08-16T18:49:21.996Z,22.90
2022-08-16T18:51:52.366Z,22.82
2022-08-16T18:54:24.449Z,22.75
2022-08-16T18:56:57.331Z,22.67
2022-08-16T18:59:30.878Z,22.60
2022-08-16T19:02:04.403Z,22.53
2022-08-16T19:04:55.916Z,22.46
2022-08-16T19:07:30.589Z,22.38
2022-08-16T19:10:02.676Z,22.32
2022-08-16T19:12:37.781Z,22.26
2022-08-16T19:15:15.726Z,22.20
2022-08-16T19:17:47.003Z,22.15
2022-08-16T19:20:19.507Z,22.10
2022-08-16T19:23:05.792Z,22.06
2022-08-16T19:25:47.109Z,22.03
2022-08-16T19:28:50.682Z,22.00
2022-08-16T19:31:12.438Z,21.96
2022-08-16T19:33:47.269Z,21.92
2022-08-16T19:36:31.155Z,21.88
2022-08-16T19:39:05.579Z,21.85
2022-08-16T19:41:37.888Z,21.83
2022-08-16T19:44:08.982Z,21.79
2022-08-16T19:46:41.661Z,21.75
2022-08-16T19:49:16.306Z,21.69
2022-08-16T19:51:47.474Z,21.64
2022-08-16T19:54:18.292Z,21.62
2022-08-16T19:56:48.858Z,21.59
2022-08-16T19:59:22.179Z,21.57
2022-08-16T20:01:53.328Z,21.53
2022-08-16T20:04:25.807Z,21.50
2022-08-16T20:06:55.191Z,21.47
2022-08-16T20:09:26.652Z,21.45
2022-08-16T20:11:59.148Z,21.43
2022-08-16T20:14:28.120Z,21.42
2022-08-16T20:17:00.338Z,21.41
2022-08-16T20:19:37.027Z,21.40
2022-08-16T20:22:42.089Z,21.38
2022-08-16T20:25:15.104Z,21.36
2022-08-16T20:27:45.467Z,21.34
2022-08-16T20:30:17.353Z,21.31
2022-08-16T20:32:48.818Z,21.30
2022-08-16T20:35:22.680Z,21.28
2022-08-16T20:37:53.250Z,21.26
2022-08-16T20:40:33.931Z,21.26
2022-08-16T20:43:08.379Z,21.24
2022-08-16T20:45:40.526Z,21.22
2022-08-16T20:48:10.937Z,21.21
2022-08-16T20:50:41.910Z,21.19
2022-08-16T20:53:12.543Z,21.19
2022-08-16T20:55:44.663Z,21.18
2022-08-16T20:58:15.588Z,21.17
2022-08-16T21:00:47.251Z,21.17
2022-08-16T21:03:17.721Z,21.15
2022-08-16T21:05:48.056Z,21.14
2022-08-16T21:08:50.844Z,21.13
2022-08-16T21:11:09.469Z,21.11
2022-08-16T21:13:42.925Z,21.11
2022-08-16T21:16:16.424Z,21.11
2022-08-16T21:18:46.768Z,21.10
2022-08-16T21:21:17.536Z,21.09
2022-08-16T21:23:47.943Z,21.09
2022-08-16T21:26:18.322Z,21.08
2022-08-16T21:28:48.640Z,21.08
2022-08-16T21:31:19.814Z,21.08
2022-08-16T21:33:54.884Z,21.09
2022-08-16T21:36:35.977Z,21.09
2022-08-16T21:39:07.919Z,21.09
2022-08-16T21:41:39.069Z,21.07
2022-08-16T21:44:09.952Z,21.07
2022-08-16T21:46:40.259Z,21.06
2022-08-16T21:49:10.573Z,21.05
2022-08-16T21:51:41.040Z,21.04
2022-08-16T21:54:11.486Z,21.04
2022-08-16T21:56:41.844Z,21.03
2022-08-16T21:59:30.136Z,21.01
2022-08-16T22:02:00.845Z,20.99
2022-08-16T22:04:38.283Z,20.97
2022-08-16T22:07:19.056Z,20.94
2022-08-16T22:09:56.323Z,20.92
2022-08-16T22:12:29.267Z,20.89
2022-08-16T22:14:59.596Z,20.88
2022-08-16T22:17:29.985Z,20.87
2022-08-16T22:20:00.329Z,20.86
2022-08-16T22:22:36.097Z,20.84
2022-08-16T22:25:07.339Z,20.85
2022-08-16T22:27:38.105Z,20.85
2022-08-16T22:30:10.681Z,20.86
2022-08-16T22:32:41.890Z,20.86
2022-08-16T22:35:14.331Z,20.86
2022-08-16T22:38:47.854Z,20.86
2022-08-16T22:40:35.174Z,20.87
2022-08-16T22:43:05.545Z,20.87
2022-08-16T22:45:36.976Z,20.87
2022-08-16T22:48:07.928Z,20.87
2022-08-16T22:50:38.750Z,20.86
2022-08-16T22:53:09.938Z,20.85
2022-08-16T22:55:41.552Z,20.84
2022-08-16T22:58:13.789Z,20.83
2022-08-16T23:00:45.073Z,20.81
2022-08-16T23:03:17.285Z,20.80
2022-08-16T23:05:50.437Z,20.79
2022-08-16T23:08:38.613Z,20.77
2022-08-16T23:11:12.046Z,20.75
2022-08-16T23:13:53.241Z,20.73
2022-08-16T23:16:32.411Z,20.70
2022-08-16T23:19:04.972Z,20.66
2022-08-16T23:21:37.087Z,20.61
2022-08-16T23:24:09.171Z,20.58
2022-08-16T23:26:46.654Z,20.55
2022-08-16T23:29:23.820Z,20.54
2022-08-16T23:31:56.982Z,20.54
2022-08-16T23:34:28.732Z,20.54
2022-08-16T23:36:59.237Z,20.56
2022-08-16T23:39:29.698Z,20.57
2022-08-16T23:42:00.717Z,20.57
2022-08-16T23:44:42.179Z,20.55
2022-08-16T23:47:22.034Z,20.53
2022-08-16T23:50:02.458Z,20.48
2022-08-16T23:52:45.286Z,20.44
2022-08-16T23:55:25.318Z,20.41
2022-08-16T23:57:55.743Z,20.40
